Time;durP1;ratioP1;P1;durP2;ratioP2;P2;SDS_P1;SDS_P2;PMS_P1;PMS_P2;Temp;Humidity;BMP_temperature;BMP_pressure;BME280_temperature;BME280_humidity;BME280_pressure;Samples;Min_cycle;Max_cycle;Signal;HPM_P1;HPM_P2
2023/07/22 00:01:57;;;;;;;14.10;5.53;;;;;;;;;;5032501;28;20276;-73
2023/07/22 00:04:23;;;;;;;17.23;6.37;;;;;;;;;;5032242;28;20334;-74
2023/07/22 00:06:48;;;;;;;10.27;5.47;;;;;;;;;;5032830;28;20367;-74
2023/07/22 00:09:13;;;;;;;13.48;6.28;;;;;;;;;;5032142;28;20256;-74
2023/07/22 00:11:38;;;;;;;16.10;6.20;;;;;;;;;;5030219;28;20037;-74
2023/07/22 00:14:06;;;;;;;12.10;6.18;;;;;;;;;;5031127;28;20418;-74
2023/07/22 00:16:31;;;;;;;12.25;6.03;;;;;;;;;;5033681;28;20057;-74
2023/07/22 00:18:56;;;;;;;12.23;5.90;;;;;;;;;;5030304;28;20522;-74
2023/07/22 00:21:21;;;;;;;11.57;5.63;;;;;;;;;;5030697;28;20108;-74
2023/07/22 00:23:46;;;;;;;11.60;6.33;;;;;;;;;;5032096;28;20280;-74
2023/07/22 00:26:11;;;;;;;9.80;5.50;;;;;;;;;;5029686;28;20264;-74
2023/07/22 00:28:37;;;;;;;12.60;6.27;;;;;;;;;;5029771;28;20307;-74
2023/07/22 00:31:03;;;;;;;10.90;6.30;;;;;;;;;;5031843;28;20256;-74
2023/07/22 00:33:28;;;;;;;14.68;5.00;;;;;;;;;;5034936;28;20338;-74
2023/07/22 00:35:53;;;;;;;12.87;5.63;;;;;;;;;;5033214;28;20046;-74
2023/07/22 00:38:19;;;;;;;12.25;6.03;;;;;;;;;;5035480;28;20687;-73
2023/07/22 00:40:44;;;;;;;13.52;6.63;;;;;;;;;;5038759;28;20018;-73
2023/07/22 00:43:10;;;;;;;11.15;5.97;;;;;;;;;;5030058;28;20550;-73
2023/07/22 00:45:36;;;;;;;11.20;5.28;;;;;;;;;;5028996;28;20029;-72
2023/07/22 00:48:02;;;;;;;15.52;6.07;;;;;;;;;;5030915;28;20044;-72
2023/07/22 00:50:27;;;;;;;13.43;5.88;;;;;;;;;;5030229;28;20060;-72
2023/07/22 00:52:52;;;;;;;20.70;5.57;;;;;;;;;;5031519;28;20014;-73
2023/07/22 00:55:17;;;;;;;12.23;6.18;;;;;;;;;;5029578;28;20056;-72
2023/07/22 00:57:43;;;;;;;13.25;6.47;;;;;;;;;;5031547;28;20036;-72
2023/07/22 01:00:11;;;;;;;13.05;6.25;;;;;;;;;;5031465;28;20018;-72
2023/07/22 01:02:36;;;;;;;14.05;5.95;;;;;;;;;;5029646;28;20052;-72
2023/07/22 01:05:02;;;;;;;18.38;6.32;;;;;;;;;;5030905;28;20060;-72
2023/07/22 01:07:27;;;;;;;12.88;6.63;;;;;;;;;;5032015;28;20045;-73
2023/07/22 01:09:56;;;;;;;10.13;5.63;;;;;;;;;;5030582;28;20021;-73
2023/07/22 01:12:21;;;;;;;13.32;6.25;;;;;;;;;;5030287;28;20493;-73
2023/07/22 01:14:46;;;;;;;14.93;6.00;;;;;;;;;;5031653;28;20029;-73
2023/07/22 01:17:11;;;;;;;11.90;6.38;;;;;;;;;;5031348;28;20029;-73
2023/07/22 01:19:37;;;;;;;11.95;5.80;;;;;;;;;;5031878;28;20029;-74
2023/07/22 01:22:02;;;;;;;10.02;5.20;;;;;;;;;;5031066;28;20020;-74
2023/07/22 01:24:31;;;;;;;14.68;5.55;;;;;;;;;;5031682;28;20032;-74
2023/07/22 01:26:56;;;;;;;15.63;6.50;;;;;;;;;;5031863;28;20045;-74
2023/07/22 01:29:22;;;;;;;16.45;6.95;;;;;;;;;;5033689;28;20493;-74
2023/07/22 01:31:52;;;;;;;16.55;6.22;;;;;;;;;;5030629;28;20564;-74
2023/07/22 01:34:17;;;;;;;15.83;6.60;;;;;;;;;;5030754;28;20033;-74
2023/07/22 01:36:43;;;;;;;14.48;6.28;;;;;;;;;;5033053;28;20343;-74
2023/07/22 01:39:08;;;;;;;13.40;5.95;;;;;;;;;;5030400;28;20116;-74
2023/07/22 01:41:33;;;;;;;12.77;6.35;;;;;;;;;;5030007;28;20025;-74
2023/07/22 01:47:02;;;;;;;15.60;5.97;;;;;;;;;;5018184;28;20255;-74
2023/07/22 01:49:28;;;;;;;13.27;5.65;;;;;;;;;;5014200;22;20448;-86
2023/07/22 01:51:54;;;;;;;12.10;5.90;;;;;;;;;;4994620;28;20085;-87
2023/07/22 01:54:19;;;;;;;10.40;5.78;;;;;;;;;;5004575;28;20014;-87
2023/07/22 01:56:44;;;;;;;14.77;5.85;;;;;;;;;;5001984;28;20037;-88
2023/07/22 01:59:09;;;;;;;16.70;6.57;;;;;;;;;;5009024;28;20091;-88
2023/07/22 02:01:35;;;;;;;19.52;7.45;;;;;;;;;;5005849;28;20554;-88
2023/07/22 02:04:00;;;;;;;14.85;6.35;;;;;;;;;;5011018;28;20376;-88
2023/07/22 02:06:27;;;;;;;15.27;6.40;;;;;;;;;;5004154;28;20420;-87
2023/07/22 02:08:55;;;;;;;12.73;6.38;;;;;;;;;;5003913;28;20049;-87
2023/07/22 02:11:21;;;;;;;16.08;7.65;;;;;;;;;;5010768;28;20089;-88
2023/07/22 02:13:49;;;;;;;12.38;6.63;;;;;;;;;;5009214;28;20113;-88
2023/07/22 02:16:16;;;;;;;17.05;6.93;;;;;;;;;;5008987;28;20476;-87
2023/07/22 02:18:47;;;;;;;12.75;6.97;;;;;;;;;;5006333;28;20494;-88
2023/07/22 02:21:13;;;;;;;12.95;5.40;;;;;;;;;;5005694;28;20483;-87
2023/07/22 02:23:40;;;;;;;11.80;6.63;;;;;;;;;;5011337;28;20021;-88
2023/07/22 02:26:05;;;;;;;17.77;6.20;;;;;;;;;;5006208;28;20556;-87
2023/07/22 02:28:33;;;;;;;16.23;6.83;;;;;;;;;;5004987;28;20113;-87
2023/07/22 02:31:02;;;;;;;13.68;6.47;;;;;;;;;;5012495;28;20348;-87
2023/07/22 02:33:27;;;;;;;16.88;7.55;;;;;;;;;;5010257;28;20022;-86
2023/07/22 02:35:52;;;;;;;16.60;7.13;;;;;;;;;;5009634;28;20448;-87
2023/07/22 02:38:20;;;;;;;13.93;7.03;;;;;;;;;;5010107;28;20025;-88
2023/07/22 02:40:45;;;;;;;17.80;7.32;;;;;;;;;;5005082;28;21942;-87
2023/07/22 02:43:10;;;;;;;19.17;6.82;;;;;;;;;;5003629;28;20014;-87
2023/07/22 02:45:36;;;;;;;13.35;6.55;;;;;;;;;;5001025;28;20024;-87
2023/07/22 02:48:01;;;;;;;22.65;8.52;;;;;;;;;;5002877;28;20018;-87
2023/07/22 02:50:26;;;;;;;15.82;7.18;;;;;;;;;;5006123;28;20651;-87
2023/07/22 02:52:52;;;;;;;17.27;7.35;;;;;;;;;;4998028;28;20029;-88
2023/07/22 02:55:20;;;;;;;14.80;6.78;;;;;;;;;;5006382;28;20025;-87
2023/07/22 02:57:46;;;;;;;15.85;7.38;;;;;;;;;;5007647;28;20305;-88
2023/07/22 03:00:11;;;;;;;13.18;7.10;;;;;;;;;;5009990;28;20105;-87
2023/07/22 03:02:37;;;;;;;11.07;5.13;;;;;;;;;;5005868;28;21445;-87
2023/07/22 03:05:09;;;;;;;15.60;6.57;;;;;;;;;;5005228;28;20024;-88
2023/07/22 03:07:35;;;;;;;13.60;5.28;;;;;;;;;;5005402;28;20018;-88
2023/07/22 03:10:03;;;;;;;12.25;4.75;;;;;;;;;;5009204;28;20553;-88
2023/07/22 03:12:30;;;;;;;17.63;6.60;;;;;;;;;;5006130;28;20022;-89
2023/07/22 03:14:56;;;;;;;17.52;6.75;;;;;;;;;;5009103;28;20030;-87
2023/07/22 03:17:21;;;;;;;13.73;5.88;;;;;;;;;;5009745;28;20140;-88
2023/07/22 03:19:49;;;;;;;14.63;5.82;;;;;;;;;;5027962;28;20049;-87
2023/07/22 03:22:15;;;;;;;18.50;7.57;;;;;;;;;;5035431;28;20037;-87
2023/07/22 03:24:41;;;;;;;13.70;7.38;;;;;;;;;;5032899;28;20017;-87
2023/07/22 03:27:09;;;;;;;18.92;7.47;;;;;;;;;;5030997;28;20030;-87
2023/07/22 03:29:35;;;;;;;13.13;5.22;;;;;;;;;;5033419;28;20053;-87
2023/07/22 03:34:46;;;;;;;18.10;7.05;;;;;;;;;;5005235;28;20558;-74
2023/07/22 03:37:12;;;;;;;14.80;7.45;;;;;;;;;;5010560;28;20136;-74
2023/07/22 03:39:37;;;;;;;16.58;7.22;;;;;;;;;;5010632;28;20498;-74
2023/07/22 03:42:03;;;;;;;14.45;6.63;;;;;;;;;;5008866;28;20021;-74
2023/07/22 03:44:29;;;;;;;14.43;6.43;;;;;;;;;;5010091;28;20032;-74
2023/07/22 03:46:54;;;;;;;16.25;6.78;;;;;;;;;;5010102;28;20021;-74
2023/07/22 03:49:19;;;;;;;14.67;6.83;;;;;;;;;;5009610;28;20037;-74
2023/07/22 03:51:45;;;;;;;14.23;6.97;;;;;;;;;;5010737;28;20276;-74
2023/07/22 03:54:10;;;;;;;12.00;5.87;;;;;;;;;;5011125;28;20109;-74
2023/07/22 03:56:36;;;;;;;16.17;7.22;;;;;;;;;;5010563;28;20291;-74
2023/07/22 03:59:02;;;;;;;15.32;6.22;;;;;;;;;;4989482;28;20140;-74
2023/07/22 04:01:27;;;;;;;15.00;6.77;;;;;;;;;;5008481;28;20394;-74
2023/07/22 04:03:52;;;;;;;13.07;6.13;;;;;;;;;;5011704;28;20320;-74
2023/07/22 04:06:17;;;;;;;12.43;6.33;;;;;;;;;;4996615;28;20279;-74
2023/07/22 04:08:42;;;;;;;13.77;7.18;;;;;;;;;;5005822;28;20748;-74
2023/07/22 04:11:07;;;;;;;15.63;5.83;;;;;;;;;;5014379;28;20076;-74
2023/07/22 04:13:33;;;;;;;15.88;6.82;;;;;;;;;;5015579;28;20300;-74
2023/07/22 04:15:58;;;;;;;13.67;5.93;;;;;;;;;;5013308;28;20101;-74
2023/07/22 04:18:23;;;;;;;10.82;6.18;;;;;;;;;;5013583;28;20288;-74
2023/07/22 04:20:55;;;;;;;14.57;7.40;;;;;;;;;;5013427;28;20029;-74
2023/07/22 04:23:20;;;;;;;16.60;6.43;;;;;;;;;;5010534;28;20060;-74
2023/07/22 04:25:45;;;;;;;12.33;6.73;;;;;;;;;;5011829;28;20030;-74
2023/07/22 04:28:10;;;;;;;14.90;6.67;;;;;;;;;;5011216;28;20300;-74
2023/07/22 04:30:36;;;;;;;13.85;6.90;;;;;;;;;;5009502;28;20311;-73
2023/07/22 04:33:02;;;;;;;11.60;5.20;;;;;;;;;;5008847;28;20030;-74
2023/07/22 04:35:29;;;;;;;14.77;7.15;;;;;;;;;;5006556;28;20021;-74
2023/07/22 04:37:54;;;;;;;10.18;5.55;;;;;;;;;;5010109;28;20018;-74
2023/07/22 04:40:20;;;;;;;12.33;5.50;;;;;;;;;;5011595;28;20084;-74
2023/07/22 04:42:46;;;;;;;10.77;5.13;;;;;;;;;;5009612;28;20308;-74
2023/07/22 04:45:11;;;;;;;17.75;6.32;;;;;;;;;;5010652;28;20269;-74
2023/07/22 04:47:37;;;;;;;11.00;4.82;;;;;;;;;;5009982;28;20022;-74
2023/07/22 04:50:04;;;;;;;10.20;5.80;;;;;;;;;;5012483;28;20022;-74
2023/07/22 04:52:29;;;;;;;15.35;6.45;;;;;;;;;;5011721;28;20531;-74
2023/07/22 04:54:54;;;;;;;14.85;5.80;;;;;;;;;;5011909;28;20029;-74
2023/07/22 04:57:20;;;;;;;12.90;5.97;;;;;;;;;;5006439;28;20053;-74
2023/07/22 04:59:46;;;;;;;13.38;6.70;;;;;;;;;;5005731;28;20281;-74
2023/07/22 05:02:11;;;;;;;13.77;5.40;;;;;;;;;;5002945;28;20084;-74
2023/07/22 05:04:36;;;;;;;5.95;2.80;;;;;;;;;;5011405;28;20096;-74
2023/07/22 05:07:01;;;;;;;11.60;6.38;;;;;;;;;;4995390;28;20076;-74
2023/07/22 05:09:27;;;;;;;15.17;5.53;;;;;;;;;;5012360;28;20133;-74
2023/07/22 05:11:52;;;;;;;12.60;6.27;;;;;;;;;;5008882;28;20370;-74
2023/07/22 05:14:17;;;;;;;14.50;5.27;;;;;;;;;;5010788;28;20269;-74
2023/07/22 05:16:42;;;;;;;12.00;5.00;;;;;;;;;;5010252;28;20319;-74
2023/07/22 05:19:08;;;;;;;10.90;5.43;;;;;;;;;;5011652;28;20029;-74
2023/07/22 05:21:33;;;;;;;10.02;5.43;;;;;;;;;;5011872;28;20315;-74
2023/07/22 05:23:58;;;;;;;12.52;6.00;;;;;;;;;;5009349;28;20026;-74
2023/07/22 05:26:23;;;;;;;12.30;5.70;;;;;;;;;;5008567;28;20433;-74
2023/07/22 05:28:48;;;;;;;11.33;5.87;;;;;;;;;;5010217;28;20318;-74
2023/07/22 05:31:14;;;;;;;12.60;4.80;;;;;;;;;;4994596;28;20279;-74
2023/07/22 05:33:39;;;;;;;19.50;6.40;;;;;;;;;;4995329;28;20285;-74
2023/07/22 05:36:04;;;;;;;10.07;5.33;;;;;;;;;;5011822;28;20277;-74
2023/07/22 05:38:31;;;;;;;11.68;5.43;;;;;;;;;;5011881;28;20311;-74
2023/07/22 05:40:56;;;;;;;10.82;5.53;;;;;;;;;;5010239;28;20033;-74
2023/07/22 05:43:21;;;;;;;5.03;2.25;;;;;;;;;;5010055;28;20018;-74
2023/07/22 05:45:46;;;;;;;13.52;5.45;;;;;;;;;;5010255;28;20109;-74
2023/07/22 05:48:12;;;;;;;7.07;3.77;;;;;;;;;;5010799;28;20022;-74
2023/07/22 05:50:37;;;;;;;6.40;4.10;;;;;;;;;;5011340;28;20299;-74
2023/07/22 05:53:02;;;;;;;5.90;3.17;;;;;;;;;;5005440;28;20660;-74
2023/07/22 05:55:27;;;;;;;6.33;3.60;;;;;;;;;;5007697;28;20556;-74
2023/07/22 05:57:52;;;;;;;15.07;5.37;;;;;;;;;;5009094;28;20343;-73
2023/07/22 06:00:18;;;;;;;9.38;3.35;;;;;;;;;;5004017;28;20280;-73
2023/07/22 06:02:44;;;;;;;16.80;5.90;;;;;;;;;;5004106;28;20386;-74
2023/07/22 06:05:09;;;;;;;11.55;6.00;;;;;;;;;;5010906;28;20479;-73
2023/07/22 06:07:34;;;;;;;10.32;4.78;;;;;;;;;;5009401;28;20025;-73
2023/07/22 06:09:59;;;;;;;11.85;5.50;;;;;;;;;;5009670;28;20022;-73
2023/07/22 06:12:24;;;;;;;14.17;4.10;;;;;;;;;;5008874;28;20021;-74
2023/07/22 06:14:50;;;;;;;11.15;5.25;;;;;;;;;;5009204;28;20379;-74
2023/07/22 06:17:15;;;;;;;13.88;3.75;;;;;;;;;;5006052;28;20049;-73
2023/07/22 06:19:40;;;;;;;15.13;6.38;;;;;;;;;;5009544;28;20036;-73
2023/07/22 06:22:05;;;;;;;11.47;6.13;;;;;;;;;;4989336;28;20117;-74
2023/07/22 06:24:30;;;;;;;14.50;7.15;;;;;;;;;;5008631;28;20284;-73
2023/07/22 06:26:56;;;;;;;11.88;4.60;;;;;;;;;;5009193;28;20022;-73
2023/07/22 06:29:21;;;;;;;12.50;6.20;;;;;;;;;;5007924;28;20144;-73
2023/07/22 06:31:46;;;;;;;10.90;5.18;;;;;;;;;;5006487;28;20030;-74
2023/07/22 06:34:11;;;;;;;14.30;5.17;;;;;;;;;;5009513;28;20040;-74
2023/07/22 06:36:36;;;;;;;11.87;5.97;;;;;;;;;;4994820;28;20033;-73
2023/07/22 06:39:02;;;;;;;8.90;4.53;;;;;;;;;;5007431;28;20026;-73
2023/07/22 06:41:27;;;;;;;3.57;2.30;;;;;;;;;;5010162;28;20745;-73
2023/07/22 06:43:52;;;;;;;11.13;6.20;;;;;;;;;;5013984;28;20268;-73
2023/07/22 06:46:17;;;;;;;16.47;5.80;;;;;;;;;;5016206;28;20268;-73
2023/07/22 06:48:43;;;;;;;13.98;6.63;;;;;;;;;;5008413;28;20376;-73
2023/07/22 06:51:08;;;;;;;16.40;6.10;;;;;;;;;;5010764;28;20030;-73
2023/07/22 06:53:33;;;;;;;11.70;5.80;;;;;;;;;;5009469;28;20041;-73
2023/07/22 06:55:58;;;;;;;10.32;5.78;;;;;;;;;;5009327;28;20052;-73
2023/07/22 06:58:23;;;;;;;13.17;6.03;;;;;;;;;;5009253;28;20076;-73
2023/07/22 07:00:55;;;;;;;14.38;5.57;;;;;;;;;;5007908;28;20275;-73
2023/07/22 07:03:21;;;;;;;9.00;5.18;;;;;;;;;;5002573;28;20018;-73
2023/07/22 07:05:51;;;;;;;11.38;6.00;;;;;;;;;;5005284;28;20394;-73
2023/07/22 07:08:16;;;;;;;9.73;5.18;;;;;;;;;;5006383;28;20451;-73
2023/07/22 07:10:41;;;;;;;20.57;6.20;;;;;;;;;;5007472;28;20038;-73
2023/07/22 07:13:07;;;;;;;13.07;6.23;;;;;;;;;;5007838;28;20342;-73
2023/07/22 07:15:32;;;;;;;11.80;3.38;;;;;;;;;;5012098;28;20272;-73
2023/07/22 07:17:57;;;;;;;10.07;3.37;;;;;;;;;;5012060;28;20053;-73
2023/07/22 07:20:22;;;;;;;9.10;3.30;;;;;;;;;;5011602;28;20288;-73
2023/07/22 07:22:47;;;;;;;11.80;5.60;;;;;;;;;;5012159;28;20065;-73
2023/07/22 07:25:15;;;;;;;10.07;4.67;;;;;;;;;;5011191;28;20026;-73
2023/07/22 07:27:40;;;;;;;13.25;5.38;;;;;;;;;;5008540;28;20030;-73
2023/07/22 07:30:06;;;;;;;9.00;4.87;;;;;;;;;;5010728;28;20022;-73
2023/07/22 07:32:31;;;;;;;12.73;5.60;;;;;;;;;;5011353;28;20136;-73
2023/07/22 07:34:56;;;;;;;11.80;4.70;;;;;;;;;;4995443;28;20168;-74
2023/07/22 07:37:22;;;;;;;16.42;5.93;;;;;;;;;;5010260;28;20787;-73
2023/07/22 07:39:47;;;;;;;13.77;5.75;;;;;;;;;;5010309;28;20132;-74
2023/07/22 07:42:16;;;;;;;12.13;5.77;;;;;;;;;;5008212;28;20018;-73
2023/07/22 07:44:41;;;;;;;6.93;3.67;;;;;;;;;;5011179;28;20261;-73
2023/07/22 07:47:06;;;;;;;11.13;5.05;;;;;;;;;;5009991;28;20028;-73
2023/07/22 07:49:31;;;;;;;10.15;5.25;;;;;;;;;;5011509;28;20490;-73
2023/07/22 07:51:56;;;;;;;12.27;5.88;;;;;;;;;;5005059;28;20387;-73
2023/07/22 07:54:21;;;;;;;8.65;5.47;;;;;;;;;;5011303;28;20417;-73
2023/07/22 07:56:46;;;;;;;13.63;6.33;;;;;;;;;;5008380;28;20026;-73
2023/07/22 07:59:12;;;;;;;10.77;6.10;;;;;;;;;;4996224;28;20028;-74
2023/07/22 08:01:41;;;;;;;13.27;7.47;;;;;;;;;;5011527;28;20022;-73
2023/07/22 08:04:06;;;;;;;13.57;6.57;;;;;;;;;;5011682;28;20097;-73
2023/07/22 08:06:32;;;;;;;15.03;6.57;;;;;;;;;;5010313;28;20454;-73
2023/07/22 08:08:58;;;;;;;11.48;5.68;;;;;;;;;;5009806;28;20040;-73
2023/07/22 08:11:24;;;;;;;19.52;6.05;;;;;;;;;;5012730;28;20014;-74
2023/07/22 08:13:49;;;;;;;11.23;6.23;;;;;;;;;;5012599;28;20038;-74
2023/07/22 08:16:15;;;;;;;11.02;5.80;;;;;;;;;;5013282;28;20442;-74
2023/07/22 08:18:40;;;;;;;13.07;6.65;;;;;;;;;;5012196;28;20482;-74
2023/07/22 08:21:07;;;;;;;14.80;7.07;;;;;;;;;;5013262;28;20024;-74
2023/07/22 08:23:32;;;;;;;14.13;6.22;;;;;;;;;;5013123;28;20022;-74
2023/07/22 08:25:57;;;;;;;9.50;5.70;;;;;;;;;;5012163;28;20109;-74
2023/07/22 08:28:22;;;;;;;10.68;6.07;;;;;;;;;;5011572;28;20014;-73
2023/07/22 08:30:48;;;;;;;9.40;5.37;;;;;;;;;;5012593;28;20093;-74
2023/07/22 08:33:13;;;;;;;11.32;4.63;;;;;;;;;;5011620;28;20030;-74
2023/07/22 08:35:39;;;;;;;8.75;5.32;;;;;;;;;;5012815;28;20028;-74
2023/07/22 08:38:04;;;;;;;9.50;3.67;;;;;;;;;;5011367;28;20021;-74
2023/07/22 08:40:37;;;;;;;8.32;5.13;;;;;;;;;;5012908;28;20582;-73
2023/07/22 08:43:03;;;;;;;11.73;5.82;;;;;;;;;;5012962;28;20025;-74
2023/07/22 08:45:29;;;;;;;12.02;5.82;;;;;;;;;;5010047;28;20489;-74
2023/07/22 08:47:57;;;;;;;20.30;5.68;;;;;;;;;;4996035;28;20030;-74
2023/07/22 08:50:24;;;;;;;9.52;5.07;;;;;;;;;;5012696;28;20076;-73
2023/07/22 08:52:49;;;;;;;8.45;5.05;;;;;;;;;;5011179;28;20026;-74
2023/07/22 08:55:15;;;;;;;10.10;5.68;;;;;;;;;;5012220;28;20072;-73
2023/07/22 08:57:41;;;;;;;10.20;4.60;;;;;;;;;;5011654;28;20014;-73
2023/07/22 09:00:06;;;;;;;9.82;5.15;;;;;;;;;;5012413;28;20022;-73
2023/07/22 09:02:34;;;;;;;9.30;4.65;;;;;;;;;;5011131;28;20438;-74
2023/07/22 09:05:00;;;;;;;8.60;4.47;;;;;;;;;;5004935;28;20482;-74
2023/07/22 09:07:25;;;;;;;10.73;4.00;;;;;;;;;;5006589;28;20018;-74
2023/07/22 09:09:51;;;;;;;13.48;4.70;;;;;;;;;;5006394;28;20034;-74
2023/07/22 09:12:17;;;;;;;5.78;4.20;;;;;;;;;;5011593;28;20022;-74
2023/07/22 09:14:42;;;;;;;12.48;4.45;;;;;;;;;;5005126;28;20030;-74
2023/07/22 09:17:08;;;;;;;6.25;4.35;;;;;;;;;;5010947;28;20155;-74
2023/07/22 09:19:33;;;;;;;14.50;4.27;;;;;;;;;;5007232;28;20026;-74
2023/07/22 09:21:58;;;;;;;5.93;3.73;;;;;;;;;;5008284;28;20808;-73
2023/07/22 09:24:24;;;;;;;10.27;4.45;;;;;;;;;;5009218;28;20277;-73
2023/07/22 09:26:49;;;;;;;5.90;4.15;;;;;;;;;;5010008;28;20064;-73
2023/07/22 09:29:15;;;;;;;7.05;4.03;;;;;;;;;;5009508;28;20018;-74
2023/07/22 09:31:50;;;;;;;6.97;4.03;;;;;;;;;;5008492;28;20072;-73
2023/07/22 09:34:16;;;;;;;6.15;3.50;;;;;;;;;;5007561;28;20280;-74
2023/07/22 09:36:51;;;;;;;10.80;3.73;;;;;;;;;;5007720;28;20018;-73
2023/07/22 09:39:16;;;;;;;6.57;3.67;;;;;;;;;;5011258;28;20272;-74
2023/07/22 09:41:41;;;;;;;9.57;3.20;;;;;;;;;;5010141;28;20391;-74
2023/07/22 09:44:09;;;;;;;5.35;3.28;;;;;;;;;;5006690;28;20028;-73
2023/07/22 09:46:34;;;;;;;9.70;3.60;;;;;;;;;;5006707;28;20069;-74
2023/07/22 09:49:02;;;;;;;4.50;2.97;;;;;;;;;;5007503;28;20033;-73
2023/07/22 09:51:32;;;;;;;6.90;3.47;;;;;;;;;;5008749;28;20478;-74
2023/07/22 09:53:57;;;;;;;;;;;;;;;;;;5009791;28;20045;-74
2023/07/22 09:56:22;;;;;;;8.85;3.55;;;;;;;;;;5008644;28;20020;-74
2023/07/22 09:58:48;;;;;;;5.27;3.50;;;;;;;;;;5008875;28;20026;-74
2023/07/22 10:01:15;;;;;;;7.20;3.80;;;;;;;;;;5006936;28;20021;-74
2023/07/22 10:03:42;;;;;;;6.15;4.05;;;;;;;;;;5007813;28;20101;-74
2023/07/22 10:06:08;;;;;;;6.50;3.72;;;;;;;;;;5005828;28;20025;-74
2023/07/22 10:08:35;;;;;;;7.88;3.15;;;;;;;;;;5010870;28;20021;-74
2023/07/22 10:11:01;;;;;;;4.40;3.10;;;;;;;;;;5010692;28;20029;-74
2023/07/22 10:13:27;;;;;;;4.43;2.90;;;;;;;;;;5011421;28;20026;-74
2023/07/22 10:15:52;;;;;;;7.00;3.27;;;;;;;;;;5010298;28;20030;-74
2023/07/22 10:18:19;;;;;;;9.73;4.15;;;;;;;;;;5010552;28;20249;-74
2023/07/22 10:20:46;;;;;;;6.63;3.97;;;;;;;;;;5008482;28;20482;-74
2023/07/22 10:23:14;;;;;;;10.45;3.60;;;;;;;;;;5009805;28;20024;-74
2023/07/22 10:25:39;;;;;;;7.07;3.42;;;;;;;;;;5010429;28;20132;-74
2023/07/22 10:28:05;;;;;;;5.47;2.58;;;;;;;;;;5009277;28;20541;-74
2023/07/22 10:30:31;;;;;;;3.47;2.38;;;;;;;;;;5009970;28;20030;-74
2023/07/22 10:32:56;;;;;;;4.70;2.65;;;;;;;;;;5010186;28;20141;-74
2023/07/22 10:35:25;;;;;;;5.28;2.97;;;;;;;;;;5010541;28;20030;-74
2023/07/22 10:37:52;;;;;;;6.70;2.85;;;;;;;;;;5009298;28;20036;-74
2023/07/22 10:40:28;;;;;;;4.60;2.47;;;;;;;;;;4995592;28;20417;-74
2023/07/22 10:42:53;;;;;;;5.32;2.65;;;;;;;;;;5010280;28;20026;-74
2023/07/22 10:45:32;;;;;;;6.25;2.33;;;;;;;;;;4995231;28;20022;-72
2023/07/22 10:48:07;;;;;;;8.02;2.40;;;;;;;;;;5009980;28;20030;-72
2023/07/22 10:50:40;;;;;;;5.47;2.08;;;;;;;;;;5006049;28;20018;-72
2023/07/22 10:53:05;;;;;;;6.00;2.15;;;;;;;;;;5008902;28;20049;-72
2023/07/22 10:55:30;;;;;;;3.97;2.37;;;;;;;;;;5008476;28;20061;-72
2023/07/22 10:58:02;;;;;;;4.37;2.10;;;;;;;;;;5009974;28;20264;-71
2023/07/22 11:00:29;;;;;;;5.45;2.30;;;;;;;;;;5005127;28;20017;-72
2023/07/22 11:03:12;;;;;;;5.93;2.60;;;;;;;;;;5010149;28;20426;-71
2023/07/22 11:05:47;;;;;;;6.00;2.42;;;;;;;;;;5008471;28;20378;-74
2023/07/22 11:08:13;;;;;;;6.28;2.53;;;;;;;;;;5008366;28;20018;-74
2023/07/22 11:10:51;;;;;;;5.28;2.40;;;;;;;;;;5006391;28;20014;-74
2023/07/22 11:13:16;;;;;;;6.07;2.17;;;;;;;;;;5009097;28;20014;-74
2023/07/22 11:15:46;;;;;;;5.68;2.47;;;;;;;;;;5010328;28;20033;-74
2023/07/22 11:18:12;;;;;;;6.13;2.47;;;;;;;;;;5010503;28;20030;-74
2023/07/22 11:20:37;;;;;;;5.50;2.40;;;;;;;;;;5009127;28;20067;-74
2023/07/22 11:23:02;;;;;;;3.40;2.10;;;;;;;;;;5009146;28;20493;-74
2023/07/22 11:25:27;;;;;;;4.13;2.10;;;;;;;;;;5009916;28;20255;-74
2023/07/22 11:27:53;;;;;;;5.95;2.70;;;;;;;;;;5009913;28;20284;-74
2023/07/22 11:30:18;;;;;;;3.20;2.35;;;;;;;;;;4995283;28;20018;-74
2023/07/22 11:32:44;;;;;;;2.53;2.13;;;;;;;;;;4993788;28;20052;-74
2023/07/22 11:35:09;;;;;;;6.07;2.03;;;;;;;;;;5008810;28;20030;-74
2023/07/22 11:37:35;;;;;;;3.57;2.20;;;;;;;;;;5010143;28;20029;-74
2023/07/22 11:40:01;;;;;;;5.60;2.20;;;;;;;;;;5009306;28;20026;-74
2023/07/22 11:42:26;;;;;;;3.72;2.20;;;;;;;;;;5010313;28;20006;-74
2023/07/22 11:44:51;;;;;;;4.13;2.33;;;;;;;;;;5009688;28;20494;-74
2023/07/22 11:47:16;;;;;;;3.80;2.43;;;;;;;;;;4985453;28;20261;-72
2023/07/22 11:49:46;;;;;;;2.73;1.33;;;;;;;;;;5003161;28;20326;-71
2023/07/22 11:52:15;;;;;;;4.07;1.73;;;;;;;;;;5005435;28;20058;-71
2023/07/22 11:54:41;;;;;;;4.15;1.92;;;;;;;;;;5008988;28;20053;-71
2023/07/22 11:57:12;;;;;;;5.72;2.50;;;;;;;;;;5010999;28;20478;-73
2023/07/22 11:59:39;;;;;;;4.40;2.08;;;;;;;;;;5012613;28;20535;-72
2023/07/22 12:02:05;;;;;;;3.97;2.45;;;;;;;;;;5012109;28;20188;-71
2023/07/22 12:04:31;;;;;;;4.80;2.15;;;;;;;;;;5013045;28;20113;-71
2023/07/22 12:06:56;;;;;;;3.80;2.22;;;;;;;;;;5010797;28;20790;-71
2023/07/22 12:09:22;;;;;;;3.65;2.25;;;;;;;;;;5011241;28;20030;-71
2023/07/22 12:11:54;;;;;;;5.22;2.67;;;;;;;;;;5012018;28;20030;-71
2023/07/22 12:14:19;;;;;;;4.05;2.10;;;;;;;;;;5009788;28;20049;-71
2023/07/22 12:16:44;;;;;;;5.00;2.60;;;;;;;;;;5012345;28;20461;-71
2023/07/22 12:19:09;;;;;;;3.53;1.93;;;;;;;;;;5012347;28;20029;-71
2023/07/22 12:21:35;;;;;;;3.87;2.00;;;;;;;;;;5012559;28;20440;-71
2023/07/22 12:24:01;;;;;;;4.00;2.38;;;;;;;;;;5011251;28;20084;-71
2023/07/22 12:26:26;;;;;;;9.60;2.10;;;;;;;;;;4997515;28;20018;-71
2023/07/22 12:28:51;;;;;;;4.53;2.33;;;;;;;;;;5011799;28;20406;-71
2023/07/22 12:31:16;;;;;;;3.08;2.10;;;;;;;;;;5011246;28;20268;-71
2023/07/22 12:33:42;;;;;;;3.00;1.80;;;;;;;;;;5011678;28;20045;-71
2023/07/22 12:36:07;;;;;;;4.05;1.80;;;;;;;;;;5011714;28;20033;-71
2023/07/22 12:38:32;;;;;;;2.90;1.55;;;;;;;;;;5012891;28;20101;-71
2023/07/22 12:40:57;;;;;;;8.13;2.50;;;;;;;;;;5012555;28;20048;-71
2023/07/22 12:43:22;;;;;;;4.33;2.43;;;;;;;;;;5012733;28;20029;-71
2023/07/22 12:45:48;;;;;;;4.53;2.13;;;;;;;;;;5010075;28;20054;-71
2023/07/22 12:48:13;;;;;;;3.05;1.90;;;;;;;;;;5003002;28;20296;-72
2023/07/22 12:50:38;;;;;;;6.23;2.40;;;;;;;;;;5009540;28;20042;-73
2023/07/22 12:53:03;;;;;;;3.27;2.10;;;;;;;;;;5009814;28;20300;-71
2023/07/22 12:55:28;;;;;;;3.37;2.00;;;;;;;;;;5006617;28;20076;-71
2023/07/22 12:57:54;;;;;;;5.20;2.00;;;;;;;;;;5002686;28;20308;-72
2023/07/22 13:00:19;;;;;;;4.45;2.10;;;;;;;;;;5009808;28;20017;-72
2023/07/22 13:02:44;;;;;;;3.17;2.10;;;;;;;;;;5008982;28;20041;-71
2023/07/22 13:05:09;;;;;;;6.13;2.07;;;;;;;;;;5006376;28;20032;-71
2023/07/22 13:07:34;;;;;;;3.50;2.13;;;;;;;;;;5008698;28;20489;-72
2023/07/22 13:10:02;;;;;;;6.22;2.40;;;;;;;;;;5009436;28;20234;-73
2023/07/22 13:12:27;;;;;;;1.02;0.70;;;;;;;;;;5007065;28;20009;-72
2023/07/22 13:14:52;;;;;;;3.75;2.05;;;;;;;;;;5010502;28;20496;-72
2023/07/22 13:17:17;;;;;;;6.37;2.17;;;;;;;;;;5013863;28;20073;-72
2023/07/22 13:19:43;;;;;;;4.45;1.88;;;;;;;;;;5003182;28;20037;-72
2023/07/22 13:22:08;;;;;;;2.70;1.60;;;;;;;;;;5007073;28;20423;-72
2023/07/22 13:24:33;;;;;;;3.33;1.63;;;;;;;;;;5011173;28;20761;-72
2023/07/22 13:26:58;;;;;;;3.20;1.87;;;;;;;;;;5011207;28;20025;-72
2023/07/22 13:29:23;;;;;;;3.03;1.90;;;;;;;;;;5011647;28;20260;-72
2023/07/22 13:31:48;;;;;;;2.13;1.13;;;;;;;;;;5011358;28;20030;-72
2023/07/22 13:34:15;;;;;;;4.77;2.60;;;;;;;;;;5011142;28;20022;-72
2023/07/22 13:36:40;;;;;;;3.92;2.20;;;;;;;;;;5009625;28;20030;-72
2023/07/22 13:39:05;;;;;;;5.15;2.10;;;;;;;;;;5010418;28;20057;-72
2023/07/22 13:41:30;;;;;;;3.00;1.80;;;;;;;;;;4996493;28;20025;-71
2023/07/22 13:43:55;;;;;;;3.58;1.92;;;;;;;;;;4996599;28;20021;-72
2023/07/22 13:46:20;;;;;;;5.53;2.20;;;;;;;;;;5010067;28;20025;-72
2023/07/22 13:48:46;;;;;;;3.70;2.22;;;;;;;;;;5011350;28;20022;-72
2023/07/22 13:51:11;;;;;;;3.95;2.10;;;;;;;;;;5011178;28;20029;-72
2023/07/22 13:53:36;;;;;;;3.43;1.77;;;;;;;;;;5011475;28;20551;-71
2023/07/22 13:56:01;;;;;;;2.93;2.07;;;;;;;;;;5009570;28;20837;-72
2023/07/22 13:58:26;;;;;;;3.43;2.17;;;;;;;;;;5009691;28;20014;-73
2023/07/22 14:00:52;;;;;;;6.27;2.37;;;;;;;;;;5011008;28;20026;-71
2023/07/22 14:03:17;;;;;;;5.78;2.58;;;;;;;;;;5011102;28;20045;-72
2023/07/22 14:05:42;;;;;;;3.57;2.20;;;;;;;;;;5011212;28;20056;-72
2023/07/22 14:08:07;;;;;;;3.23;2.40;;;;;;;;;;4996273;28;20269;-72
2023/07/22 14:10:32;;;;;;;3.72;2.40;;;;;;;;;;5010870;28;20474;-72
2023/07/22 14:12:57;;;;;;;5.10;2.40;;;;;;;;;;5009789;28;20026;-72
2023/07/22 14:15:23;;;;;;;4.93;2.03;;;;;;;;;;5009668;28;20423;-72
2023/07/22 14:17:48;;;;;;;3.13;2.07;;;;;;;;;;5010642;28;20121;-72
2023/07/22 14:20:14;;;;;;;6.50;1.90;;;;;;;;;;4995268;28;20281;-71
2023/07/22 14:22:39;;;;;;;4.13;2.10;;;;;;;;;;5010878;28;20095;-72
2023/07/22 14:25:04;;;;;;;9.63;2.43;;;;;;;;;;5010042;28;20486;-72
2023/07/22 14:27:30;;;;;;;4.13;1.95;;;;;;;;;;5007703;28;20744;-71
2023/07/22 14:29:55;;;;;;;5.03;2.23;;;;;;;;;;5008213;28;20044;-72
2023/07/22 14:32:20;;;;;;;3.57;2.10;;;;;;;;;;5007678;28;20026;-72
2023/07/22 14:34:45;;;;;;;3.60;2.40;;;;;;;;;;5010523;28;20560;-72